Regional La Paz
EstaciónAerodromoSit. GeograficaDescripción
SLLPInternaciónal El Alto16-08S-68-10W SLLP 272000Z 10012KT 070V130 9999 SCT017 FEW020CB BKN200 15/06 Q1036 A3060 626.7 HR58 P3487 CB/SH N/NE/E/S/NW AC NOSIG=
SLRYReyes14-18S-67-21W SLRY 272000Z 00000KT 9999 SCT017 SCT070 31/23 Q1010 A2985 HR61 RWY HUM OPR C210=
SLRQRurrenabaque14-25S-67-29W SLRQ 272000Z 00000KT 9999 SCT020 SCT200 32/24 Q1010 A2983 986.0 HR61 AC=
SLAPApolo14-44S-68-24W SLAP 272000Z 00000KT 9999 SCT020 OVC070 21/17 Q1017 A3005 858.4 HR79=
SLSBSan Borja14-51S-66-44W SLSB 272000Z 11003KT 9999 FEW020 BKN080 30/25 Q1010 A2984 HR74 RWY WET OPR C210=
SLCNCharaña17-35S-69-25W
SLOROruro17-57S-67-04W SLOR 272000Z NIL=
SLUYUyuni20-27S-62-52W SLUY 272000Z 33003KT 9999 FEW036 FEW040CB 18/03 Q1031 A3046 656.6 HR37 CB/SH NE/NW=
SLCCCopacabana - Tito Yupanqui16-11S-69-05W SLCC 272000Z NIL=
Regional Cochabamba
EstaciónAerodromoSit. GeograficaDescripción
SLVMVillamontes21-15S-63-24W SLVM 272000Z 18005KT 9999 FEW025 31/20 Q1012 A2990 HR52 FU CI=
SLHIChimore16-58S-65-09W SLHI 272000Z NIL=
SLCBCochabamba17-25S-66-10W SLCB 272000Z 18004KT 9999 FEW030 FEW033CB SCT200 25/11 Q1022 A3019 749.4 HR42 CB E/SE/W AC FU NOSIG=
SLALAlcantari19-14S-65-09W SLAL 272000Z 01014KT 9999 BKN020 15/10 Q1029 A3041 704.1 HR67 AC=
SLPOPotosí19-32S-65-43W SLPO 272000Z NIL=
SLAGMonteagudo19-49S-63-58W SLAG 272000Z 00000KT 9999 FEW025 28/17 Q1017 A3004 889.3 HR54=
SLTJTarija21-33S-64-42W SLTJ 272000Z 13008KT 9999 SCT030 BKN070 23/13 Q1020 A3012 815.0 HR55=
SLYAYacuiba21-57S-63-39W SLYA 272000Z 21005KT 9999 FEW023 30/23 Q1014 A2995 939.0 HR65=
SLBJBermejo22-46S-64-18W SLBJ 272000Z NIL=
Regional Santa Cruz
EstaciónAerodromoSit. GeograficaDescripción
SLVGValle Grande18-28S-64-05W SLVG 272000Z 00000KT 9999 SCT027 24/11 Q1024 A3024 HR37 RWY NML =
SLASAscención de Guarayos15-55S-63-09W SLAS 272000Z 00000KT 9999 FEW020 31/23 Q1013 A2991 HR64 RWY NML =
SLCPConcepción16-08S-62-01W SLCP 272000Z 17010KT 9999 FEW017 30/20 Q1014 A2994 HR56 RWY NML =
SLJVSan Javier16-16S-62-28W SLJV 272000Z 18010KT 9999 NSC 29/19 Q1011 A2985 HR55 RWY NML=
SLTISan Matías16-20S-58-24W SLTI 272000Z 00000KT 9999 BKN020 30/24 Q1013 A2991 HR74 RWY NML =
SLSISan Ignacio de Velasco16-23S-60-57W SLSI 272000Z 22005KT 9999 NSC 31/20 Q1011 A2985 HR49 RWY NML=
SLVRInternaciónal Viru Viru17-38S-63-08W SLVR 272000Z 15006KT 9999 FEW017 32/17 Q1011 A2988 HR40 NOSIG=
SLETEl Trompillo17-48S-63-10W SLET 272000Z 13006KT 9999 FEW020 32/18 Q1011 A2988 HR44 NOSIG=
SLJESan José de Chiquitos17-49S-60-44W SLJE 272000Z 18008KT 9999 NSC 32/16 Q1014 A2994 HR38 RWY NML=
SLRBRoboré18-19S-59-45W SLRB 272000Z 18004KT 9999 NSC 31/23 Q1013 A2991 HR61 RWY NML=
SLPSPuerto Suárez18-58S-57-49W SLPS 272000Z 00000KT 9999 NSC 33/19 Q1009 A2980 HR46=
SLCACamiri20-00S-63-31W SLCA 272000Z 00000KT 9999 FEW036 30/16 Q1016 A3000 HR45 RWY NML=
Regional Beni
EstaciónAerodromoSit. GeograficaDescripción
SLTRTrinidad14-49S-64-54W SLTR 272000Z 11005KT 9999 FEW017 31/22 Q1010 A2985 992.3 HR60 CI NOSIG=
SLCOCobija11-02S-68-47W SLCO 272000Z 25003KT 9999 SCT017 FEW020CB SCT080 BKN200 31/25 Q1010 A2984 983.0 HR70 CB/N/SE/NW=
SLGMGuayaramerín10-53S-65-23W SLGM 272000Z 00000KT 9999 SCT017 SCT080 BKN200 29/24 Q1010 A2982 HR72=
SLRIRiberalta11-00S-66-04W SLRI 272000Z 00000KT 9999 SCT015 BKN200 28/24 Q1010 A2984 HR77=
SLJOSan Joaquin13-03S-64-39W SLJO 272000Z 16006KT 9999 SCT017 BKN200 32/24 Q1010 A2984 HR62 RWY NML=
SLRASan Ramón13-15S-64-36W SLRA 272000Z 12006KT 9999 SCT017 BKN200 31/23 Q1010 A2983 HR62 RWY NML=
SLMGSan Magdalena13-15S-64-36W SLMG 272000Z 14006KT 9999 SCT017 BKN200 29/23 Q1010 A2982 HR70 RWY NML=
SLBUBaures13-39S-63-42W SLBU 272000Z 14005KT 9999 SCT017 BKN200 33/23 Q1008 A2978 HR57 RWY HUM OPR=
SLSASanta Ana de Yacuma13-45S-65-26W SLSA 272000Z 14006KT 9999 SCT017 31/22 Q1010 A2984 HR58=
SLSRSanta Rosa14-04S-66-47W SLSR 272000Z 09006KT 8000 VCSH SCT017 FEW023CB 30/25 Q1009 A2981 HR75 CB/SH SE/S RWY OPR C210=
SLSMSan Ignacio de Moxos14-57S-65-38W SLSM 272000Z 17008KT 9999 SCT017 31/24 Q1010 A2984 HR64 RWY OPR C210=